Acme, Washington
Current Conditions -  °F | °C
As of 1:53 PM on Thursday 27 Nov 2014 (Local Time) from KBLI Reporting Station
Overcast Overcast  
Wind Chill: 14°   Ceiling: 1700
Heat Index: 14°   Visibility: 10mi
Dew Point: 10°   Wind: 18mph
Humidity: 77%   Direction: 150°SSE
Pressure: 29.69"   Gusts: 28mph
Location:  48.72°N, 122.21°W
Report Text: KBLI 272153Z 15016G24KT 10SM OVC017 14/10 A2969 RMK AO2 RAB05E28 SLP061 P0001 T01390100
Loading
Personal Weather Stations






























Interactive Weather Map New forecast layout! Learn more

10-Day Weather Forecast

Advertisements
Track Severe Weather on mobile